sensor_id;sensor_type;location;lat;lon;timestamp;temperature;humidity
51613;DHT22;37694;51.748;14.326;2023-12-07T00:00:59;22.20;40.10
51613;DHT22;37694;51.748;14.326;2023-12-07T00:03:24;22.20;40.20
51613;DHT22;37694;51.748;14.326;2023-12-07T00:05:50;22.20;40.20
51613;DHT22;37694;51.748;14.326;2023-12-07T00:08:16;22.20;40.20
51613;DHT22;37694;51.748;14.326;2023-12-07T00:10:41;22.20;40.30
51613;DHT22;37694;51.748;14.326;2023-12-07T00:13:07;22.10;40.20
51613;DHT22;37694;51.748;14.326;2023-12-07T00:15:33;22.10;40.10
51613;DHT22;37694;51.748;14.326;2023-12-07T00:17:59;22.10;40.20
51613;DHT22;37694;51.748;14.326;2023-12-07T00:20:26;22.10;40.20
51613;DHT22;37694;51.748;14.326;2023-12-07T00:22:51;22.10;40.20
51613;DHT22;37694;51.748;14.326;2023-12-07T00:25:17;22.10;40.30
51613;DHT22;37694;51.748;14.326;2023-12-07T00:27:43;22.10;40.30
51613;DHT22;37694;51.748;14.326;2023-12-07T00:30:09;22.00;40.30
51613;DHT22;37694;51.748;14.326;2023-12-07T00:32:35;22.00;40.30
51613;DHT22;37694;51.748;14.326;2023-12-07T00:35:00;22.00;40.30
51613;DHT22;37694;51.748;14.326;2023-12-07T00:37:26;22.00;40.30
51613;DHT22;37694;51.748;14.326;2023-12-07T00:39:52;22.00;40.30
51613;DHT22;37694;51.748;14.326;2023-12-07T00:42:18;22.00;40.30
51613;DHT22;37694;51.748;14.326;2023-12-07T00:44:44;22.00;40.30
51613;DHT22;37694;51.748;14.326;2023-12-07T00:47:09;22.00;40.30
51613;DHT22;37694;51.748;14.326;2023-12-07T00:49:39;21.90;40.30
51613;DHT22;37694;51.748;14.326;2023-12-07T00:52:08;21.90;40.30
51613;DHT22;37694;51.748;14.326;2023-12-07T00:54:34;21.90;40.40
51613;DHT22;37694;51.748;14.326;2023-12-07T00:56:59;21.90;40.40
51613;DHT22;37694;51.748;14.326;2023-12-07T00:59:25;21.90;40.40
51613;DHT22;37694;51.748;14.326;2023-12-07T01:01:51;21.90;40.50
51613;DHT22;37694;51.748;14.326;2023-12-07T01:04:16;21.80;40.40
51613;DHT22;37694;51.748;14.326;2023-12-07T01:06:43;21.90;40.50
51613;DHT22;37694;51.748;14.326;2023-12-07T01:09:09;21.80;40.50
51613;DHT22;37694;51.748;14.326;2023-12-07T01:11:39;21.80;40.50
51613;DHT22;37694;51.748;14.326;2023-12-07T01:14:05;21.80;40.50
51613;DHT22;37694;51.748;14.326;2023-12-07T01:16:31;21.80;40.60
51613;DHT22;37694;51.748;14.326;2023-12-07T01:18:57;21.80;40.50
51613;DHT22;37694;51.748;14.326;2023-12-07T01:21:23;21.80;40.50
51613;DHT22;37694;51.748;14.326;2023-12-07T01:23:49;21.80;40.40
51613;DHT22;37694;51.748;14.326;2023-12-07T01:26:14;21.80;40.50
51613;DHT22;37694;51.748;14.326;2023-12-07T01:28:40;21.70;40.40
51613;DHT22;37694;51.748;14.326;2023-12-07T01:31:06;21.70;40.40
51613;DHT22;37694;51.748;14.326;2023-12-07T01:33:31;21.70;41.30
51613;DHT22;37694;51.748;14.326;2023-12-07T01:35:57;21.70;40.40
51613;DHT22;37694;51.748;14.326;2023-12-07T01:38:23;21.70;40.40
51613;DHT22;37694;51.748;14.326;2023-12-07T01:40:48;21.70;40.50
51613;DHT22;37694;51.748;14.326;2023-12-07T01:43:14;21.70;40.50
51613;DHT22;37694;51.748;14.326;2023-12-07T01:45:40;21.70;40.60
51613;DHT22;37694;51.748;14.326;2023-12-07T01:48:06;21.60;40.50
51613;DHT22;37694;51.748;14.326;2023-12-07T01:50:32;21.60;40.50
51613;DHT22;37694;51.748;14.326;2023-12-07T01:53:02;21.60;40.60
51613;DHT22;37694;51.748;14.326;2023-12-07T01:55:30;21.60;40.50
51613;DHT22;37694;51.748;14.326;2023-12-07T01:57:56;21.60;40.50
51613;DHT22;37694;51.748;14.326;2023-12-07T02:00:22;21.60;40.50
51613;DHT22;37694;51.748;14.326;2023-12-07T02:02:49;21.50;40.50
51613;DHT22;37694;51.748;14.326;2023-12-07T02:05:15;21.60;40.50
51613;DHT22;37694;51.748;14.326;2023-12-07T02:07:41;21.50;40.50
51613;DHT22;37694;51.748;14.326;2023-12-07T02:10:08;21.50;40.50
51613;DHT22;37694;51.748;14.326;2023-12-07T02:12:34;21.50;40.50
51613;DHT22;37694;51.748;14.326;2023-12-07T02:15:02;21.50;40.60
51613;DHT22;37694;51.748;14.326;2023-12-07T02:23:03;21.50;40.50
51613;DHT22;37694;51.748;14.326;2023-12-07T02:25:35;21.50;40.50
51613;DHT22;37694;51.748;14.326;2023-12-07T02:28:02;21.50;40.50
51613;DHT22;37694;51.748;14.326;2023-12-07T02:30:27;21.40;40.50
51613;DHT22;37694;51.748;14.326;2023-12-07T02:32:53;21.40;40.40
51613;DHT22;37694;51.748;14.326;2023-12-07T02:35:19;21.40;40.50
51613;DHT22;37694;51.748;14.326;2023-12-07T02:37:46;21.40;40.50
51613;DHT22;37694;51.748;14.326;2023-12-07T02:40:16;21.40;40.50
51613;DHT22;37694;51.748;14.326;2023-12-07T02:42:43;21.40;40.60
51613;DHT22;37694;51.748;14.326;2023-12-07T02:45:10;21.40;40.60
51613;DHT22;37694;51.748;14.326;2023-12-07T02:47:36;21.40;40.50
51613;DHT22;37694;51.748;14.326;2023-12-07T02:50:04;21.40;40.40
51613;DHT22;37694;51.748;14.326;2023-12-07T02:52:29;21.40;40.50
51613;DHT22;37694;51.748;14.326;2023-12-07T02:54:55;21.30;40.50
51613;DHT22;37694;51.748;14.326;2023-12-07T02:57:21;21.30;40.50
51613;DHT22;37694;51.748;14.326;2023-12-07T02:59:46;21.30;40.50
51613;DHT22;37694;51.748;14.326;2023-12-07T03:02:12;21.30;40.60
51613;DHT22;37694;51.748;14.326;2023-12-07T03:04:38;21.30;40.50
51613;DHT22;37694;51.748;14.326;2023-12-07T03:07:04;21.30;40.50
51613;DHT22;37694;51.748;14.326;2023-12-07T03:09:29;21.30;40.60
51613;DHT22;37694;51.748;14.326;2023-12-07T03:11:55;21.30;40.50
51613;DHT22;37694;51.748;14.326;2023-12-07T03:14:21;21.30;40.50
51613;DHT22;37694;51.748;14.326;2023-12-07T03:16:46;21.20;40.50
51613;DHT22;37694;51.748;14.326;2023-12-07T03:19:12;21.20;40.50
51613;DHT22;37694;51.748;14.326;2023-12-07T03:21:41;21.20;40.60
51613;DHT22;37694;51.748;14.326;2023-12-07T03:24:08;21.20;40.50
51613;DHT22;37694;51.748;14.326;2023-12-07T03:26:34;21.20;40.50
51613;DHT22;37694;51.748;14.326;2023-12-07T03:29:01;21.20;40.60
51613;DHT22;37694;51.748;14.326;2023-12-07T03:31:27;21.30;40.60
51613;DHT22;37694;51.748;14.326;2023-12-07T03:33:54;21.20;40.60
51613;DHT22;37694;51.748;14.326;2023-12-07T03:36:20;21.20;40.60
51613;DHT22;37694;51.748;14.326;2023-12-07T03:38:45;21.20;40.60
51613;DHT22;37694;51.748;14.326;2023-12-07T03:41:11;21.10;40.50
51613;DHT22;37694;51.748;14.326;2023-12-07T03:43:37;21.10;40.50
51613;DHT22;37694;51.748;14.326;2023-12-07T03:46:06;21.10;40.60
51613;DHT22;37694;51.748;14.326;2023-12-07T03:48:32;21.10;40.60
51613;DHT22;37694;51.748;14.326;2023-12-07T03:50:58;21.10;40.60
51613;DHT22;37694;51.748;14.326;2023-12-07T03:53:24;21.10;40.60
51613;DHT22;37694;51.748;14.326;2023-12-07T03:55:50;21.10;40.60
51613;DHT22;37694;51.748;14.326;2023-12-07T03:58:15;21.10;41.40
51613;DHT22;37694;51.748;14.326;2023-12-07T04:00:41;21.10;40.70
51613;DHT22;37694;51.748;14.326;2023-12-07T04:03:07;21.00;40.50
51613;DHT22;37694;51.748;14.326;2023-12-07T04:05:33;21.10;40.60
51613;DHT22;37694;51.748;14.326;2023-12-07T04:07:59;21.00;40.50
51613;DHT22;37694;51.748;14.326;2023-12-07T04:10:24;21.00;40.50
51613;DHT22;37694;51.748;14.326;2023-12-07T04:12:50;21.00;40.60
51613;DHT22;37694;51.748;14.326;2023-12-07T04:15:18;21.00;40.50
51613;DHT22;37694;51.748;14.326;2023-12-07T04:17:44;21.00;40.50
51613;DHT22;37694;51.748;14.326;2023-12-07T04:20:10;21.00;40.60
51613;DHT22;37694;51.748;14.326;2023-12-07T04:22:36;21.00;40.60
51613;DHT22;37694;51.748;14.326;2023-12-07T04:25:02;21.00;40.80
51613;DHT22;37694;51.748;14.326;2023-12-07T04:27:27;21.00;41.30
51613;DHT22;37694;51.748;14.326;2023-12-07T04:29:53;21.00;41.20
51613;DHT22;37694;51.748;14.326;2023-12-07T04:32:19;21.00;41.20
51613;DHT22;37694;51.748;14.326;2023-12-07T04:34:45;21.00;41.10
51613;DHT22;37694;51.748;14.326;2023-12-07T04:37:10;21.00;41.10
51613;DHT22;37694;51.748;14.326;2023-12-07T04:39:36;21.10;41.00
51613;DHT22;37694;51.748;14.326;2023-12-07T04:42:02;21.10;40.80
51613;DHT22;37694;51.748;14.326;2023-12-07T04:44:28;21.20;40.70
51613;DHT22;37694;51.748;14.326;2023-12-07T04:46:54;21.20;40.60
51613;DHT22;37694;51.748;14.326;2023-12-07T04:49:20;21.30;40.50
51613;DHT22;37694;51.748;14.326;2023-12-07T04:51:45;21.40;40.40
51613;DHT22;37694;51.748;14.326;2023-12-07T04:54:14;21.50;40.30
51613;DHT22;37694;51.748;14.326;2023-12-07T04:56:41;21.60;40.20
51613;DHT22;37694;51.748;14.326;2023-12-07T04:59:07;21.70;40.10
51613;DHT22;37694;51.748;14.326;2023-12-07T05:01:37;21.80;40.00
51613;DHT22;37694;51.748;14.326;2023-12-07T05:04:06;21.90;40.00
51613;DHT22;37694;51.748;14.326;2023-12-07T05:06:32;22.00;39.90
51613;DHT22;37694;51.748;14.326;2023-12-07T05:08:58;22.10;39.80
51613;DHT22;37694;51.748;14.326;2023-12-07T05:11:23;22.20;39.70
51613;DHT22;37694;51.748;14.326;2023-12-07T05:13:49;22.30;39.60
51613;DHT22;37694;51.748;14.326;2023-12-07T05:16:15;22.30;39.50
51613;DHT22;37694;51.748;14.326;2023-12-07T05:18:41;22.50;39.50
51613;DHT22;37694;51.748;14.326;2023-12-07T05:21:07;22.60;39.60
51613;DHT22;37694;51.748;14.326;2023-12-07T05:23:33;22.60;39.30
51613;DHT22;37694;51.748;14.326;2023-12-07T05:25:59;22.70;39.20
51613;DHT22;37694;51.748;14.326;2023-12-07T05:28:25;22.80;39.10
51613;DHT22;37694;51.748;14.326;2023-12-07T05:30:51;22.90;39.10
51613;DHT22;37694;51.748;14.326;2023-12-07T05:33:18;22.90;39.00
51613;DHT22;37694;51.748;14.326;2023-12-07T05:35:45;23.00;38.90
51613;DHT22;37694;51.748;14.326;2023-12-07T05:38:11;23.10;38.90
51613;DHT22;37694;51.748;14.326;2023-12-07T05:40:36;23.10;38.80
51613;DHT22;37694;51.748;14.326;2023-12-07T05:43:02;23.20;38.80
51613;DHT22;37694;51.748;14.326;2023-12-07T05:45:29;23.30;38.70
51613;DHT22;37694;51.748;14.326;2023-12-07T05:47:55;23.40;38.70
51613;DHT22;37694;51.748;14.326;2023-12-07T05:50:21;23.40;38.60
51613;DHT22;37694;51.748;14.326;2023-12-07T05:52:47;23.40;38.60
51613;DHT22;37694;51.748;14.326;2023-12-07T05:55:13;23.50;38.50
51613;DHT22;37694;51.748;14.326;2023-12-07T05:57:39;23.50;38.60
51613;DHT22;37694;51.748;14.326;2023-12-07T06:00:05;23.50;38.80
51613;DHT22;37694;51.748;14.326;2023-12-07T06:02:35;23.50;38.80
51613;DHT22;37694;51.748;14.326;2023-12-07T06:05:01;23.50;39.00
51613;DHT22;37694;51.748;14.326;2023-12-07T06:07:29;23.40;39.00
51613;DHT22;37694;51.748;14.326;2023-12-07T06:09:55;23.40;39.10
51613;DHT22;37694;51.748;14.326;2023-12-07T06:12:21;23.40;39.20
51613;DHT22;37694;51.748;14.326;2023-12-07T06:14:48;23.40;39.40
51613;DHT22;37694;51.748;14.326;2023-12-07T06:17:13;23.40;39.30
51613;DHT22;37694;51.748;14.326;2023-12-07T06:19:39;23.40;39.40
51613;DHT22;37694;51.748;14.326;2023-12-07T06:22:04;23.40;39.50
51613;DHT22;37694;51.748;14.326;2023-12-07T06:24:31;23.40;39.60
51613;DHT22;37694;51.748;14.326;2023-12-07T06:26:58;23.30;39.90
51613;DHT22;37694;51.748;14.326;2023-12-07T06:29:24;23.30;39.80
51613;DHT22;37694;51.748;14.326;2023-12-07T06:31:50;23.30;40.70
51613;DHT22;37694;51.748;14.326;2023-12-07T06:34:16;23.30;40.20
51613;DHT22;37694;51.748;14.326;2023-12-07T06:36:42;23.30;40.20
51613;DHT22;37694;51.748;14.326;2023-12-07T06:39:09;23.30;40.60
51613;DHT22;37694;51.748;14.326;2023-12-07T06:41:35;23.20;40.90
51613;DHT22;37694;51.748;14.326;2023-12-07T06:44:01;23.20;41.20
51613;DHT22;37694;51.748;14.326;2023-12-07T06:46:27;23.20;41.20
51613;DHT22;37694;51.748;14.326;2023-12-07T06:48:52;23.20;41.40
51613;DHT22;37694;51.748;14.326;2023-12-07T06:51:18;23.20;40.70
51613;DHT22;37694;51.748;14.326;2023-12-07T06:53:44;23.10;40.60
51613;DHT22;37694;51.748;14.326;2023-12-07T06:56:09;23.10;40.50
51613;DHT22;37694;51.748;14.326;2023-12-07T06:58:35;23.10;40.70
51613;DHT22;37694;51.748;14.326;2023-12-07T07:01:01;23.10;40.60
51613;DHT22;37694;51.748;14.326;2023-12-07T07:03:26;23.00;40.50
51613;DHT22;37694;51.748;14.326;2023-12-07T07:05:54;23.00;40.60
51613;DHT22;37694;51.748;14.326;2023-12-07T07:08:20;23.00;40.50
51613;DHT22;37694;51.748;14.326;2023-12-07T07:10:45;22.90;40.60
51613;DHT22;37694;51.748;14.326;2023-12-07T07:13:12;22.90;40.80
51613;DHT22;37694;51.748;14.326;2023-12-07T07:15:41;22.90;41.30
51613;DHT22;37694;51.748;14.326;2023-12-07T07:18:07;22.90;41.70
51613;DHT22;37694;51.748;14.326;2023-12-07T07:20:34;22.90;41.70
51613;DHT22;37694;51.748;14.326;2023-12-07T07:22:59;22.80;41.80
51613;DHT22;37694;51.748;14.326;2023-12-07T07:25:25;22.80;41.70
51613;DHT22;37694;51.748;14.326;2023-12-07T07:27:51;22.80;41.50
51613;DHT22;37694;51.748;14.326;2023-12-07T07:30:18;22.80;41.60
51613;DHT22;37694;51.748;14.326;2023-12-07T07:32:43;22.80;41.60
51613;DHT22;37694;51.748;14.326;2023-12-07T07:35:09;22.80;41.40
51613;DHT22;37694;51.748;14.326;2023-12-07T07:37:40;22.80;41.60
51613;DHT22;37694;51.748;14.326;2023-12-07T07:40:08;22.70;41.30
51613;DHT22;37694;51.748;14.326;2023-12-07T07:42:39;22.70;41.50
51613;DHT22;37694;51.748;14.326;2023-12-07T07:45:09;22.70;41.40
51613;DHT22;37694;51.748;14.326;2023-12-07T07:47:35;22.70;41.40
51613;DHT22;37694;51.748;14.326;2023-12-07T07:50:00;22.60;41.40
51613;DHT22;37694;51.748;14.326;2023-12-07T07:52:33;22.60;41.20
51613;DHT22;37694;51.748;14.326;2023-12-07T07:55:03;22.60;41.10
51613;DHT22;37694;51.748;14.326;2023-12-07T07:57:30;22.60;41.20
51613;DHT22;37694;51.748;14.326;2023-12-07T07:59:56;22.50;41.00
51613;DHT22;37694;51.748;14.326;2023-12-07T08:02:23;22.50;41.00
51613;DHT22;37694;51.748;14.326;2023-12-07T08:04:49;22.50;41.00
51613;DHT22;37694;51.748;14.326;2023-12-07T08:07:15;22.50;41.00
51613;DHT22;37694;51.748;14.326;2023-12-07T08:09:40;22.50;41.10
51613;DHT22;37694;51.748;14.326;2023-12-07T08:12:06;22.40;40.90
51613;DHT22;37694;51.748;14.326;2023-12-07T08:14:35;22.40;41.00
51613;DHT22;37694;51.748;14.326;2023-12-07T08:17:02;22.40;41.20
51613;DHT22;37694;51.748;14.326;2023-12-07T08:19:27;22.40;41.10
51613;DHT22;37694;51.748;14.326;2023-12-07T08:21:53;22.40;41.10
51613;DHT22;37694;51.748;14.326;2023-12-07T08:24:19;22.30;41.00
51613;DHT22;37694;51.748;14.326;2023-12-07T08:26:44;22.30;41.00
51613;DHT22;37694;51.748;14.326;2023-12-07T08:29:10;22.40;41.10
51613;DHT22;37694;51.748;14.326;2023-12-07T08:31:36;22.30;41.10
51613;DHT22;37694;51.748;14.326;2023-12-07T08:34:01;22.20;41.20
51613;DHT22;37694;51.748;14.326;2023-12-07T08:36:27;22.20;41.00
51613;DHT22;37694;51.748;14.326;2023-12-07T08:38:53;22.20;41.00
51613;DHT22;37694;51.748;14.326;2023-12-07T08:41:19;22.20;41.10
51613;DHT22;37694;51.748;14.326;2023-12-07T08:43:45;22.20;41.00
51613;DHT22;37694;51.748;14.326;2023-12-07T08:46:11;22.20;41.00
51613;DHT22;37694;51.748;14.326;2023-12-07T08:48:37;22.20;41.00
51613;DHT22;37694;51.748;14.326;2023-12-07T08:51:03;22.20;40.90
51613;DHT22;37694;51.748;14.326;2023-12-07T08:53:29;22.10;41.00
51613;DHT22;37694;51.748;14.326;2023-12-07T08:55:55;22.10;40.90
51613;DHT22;37694;51.748;14.326;2023-12-07T08:58:21;22.10;40.90
51613;DHT22;37694;51.748;14.326;2023-12-07T09:00:46;22.10;41.80
51613;DHT22;37694;51.748;14.326;2023-12-07T09:03:12;22.10;41.00
51613;DHT22;37694;51.748;14.326;2023-12-07T09:05:38;22.10;41.00
51613;DHT22;37694;51.748;14.326;2023-12-07T09:08:04;22.00;40.90
51613;DHT22;37694;51.748;14.326;2023-12-07T09:10:30;22.00;40.90
51613;DHT22;37694;51.748;14.326;2023-12-07T09:12:56;22.00;40.90
51613;DHT22;37694;51.748;14.326;2023-12-07T09:15:22;22.00;40.90
51613;DHT22;37694;51.748;14.326;2023-12-07T09:17:47;22.00;40.90
51613;DHT22;37694;51.748;14.326;2023-12-07T09:20:14;22.00;40.90
51613;DHT22;37694;51.748;14.326;2023-12-07T09:22:42;22.00;40.90
51613;DHT22;37694;51.748;14.326;2023-12-07T09:25:08;21.90;40.90
51613;DHT22;37694;51.748;14.326;2023-12-07T09:27:34;21.90;41.00
51613;DHT22;37694;51.748;14.326;2023-12-07T09:30:06;21.90;41.00
51613;DHT22;37694;51.748;14.326;2023-12-07T09:32:33;21.90;41.00
51613;DHT22;37694;51.748;14.326;2023-12-07T09:35:04;21.90;41.00
51613;DHT22;37694;51.748;14.326;2023-12-07T09:37:31;21.90;41.00
51613;DHT22;37694;51.748;14.326;2023-12-07T09:39:57;21.90;41.00
51613;DHT22;37694;51.748;14.326;2023-12-07T09:42:22;21.80;41.00
51613;DHT22;37694;51.748;14.326;2023-12-07T09:44:48;21.80;41.10
51613;DHT22;37694;51.748;14.326;2023-12-07T09:47:14;21.80;41.10
51613;DHT22;37694;51.748;14.326;2023-12-07T09:49:40;21.80;41.10
51613;DHT22;37694;51.748;14.326;2023-12-07T09:52:07;21.80;41.10
51613;DHT22;37694;51.748;14.326;2023-12-07T09:54:33;21.80;41.10
51613;DHT22;37694;51.748;14.326;2023-12-07T09:57:01;21.80;41.10
51613;DHT22;37694;51.748;14.326;2023-12-07T09:59:26;21.70;41.10
51613;DHT22;37694;51.748;14.326;2023-12-07T10:01:52;21.70;41.00
51613;DHT22;37694;51.748;14.326;2023-12-07T10:04:22;21.70;41.00
51613;DHT22;37694;51.748;14.326;2023-12-07T10:06:51;21.70;41.10
51613;DHT22;37694;51.748;14.326;2023-12-07T10:09:18;21.70;41.10
51613;DHT22;37694;51.748;14.326;2023-12-07T10:11:47;21.70;41.10
51613;DHT22;37694;51.748;14.326;2023-12-07T10:14:13;21.70;41.10
51613;DHT22;37694;51.748;14.326;2023-12-07T10:16:52;21.70;41.10
51613;DHT22;37694;51.748;14.326;2023-12-07T10:19:20;21.60;41.00
51613;DHT22;37694;51.748;14.326;2023-12-07T10:21:50;21.60;41.10
51613;DHT22;37694;51.748;14.326;2023-12-07T10:24:20;21.60;41.10
51613;DHT22;37694;51.748;14.326;2023-12-07T10:26:47;21.60;41.10
51613;DHT22;37694;51.748;14.326;2023-12-07T10:29:14;21.60;41.10
51613;DHT22;37694;51.748;14.326;2023-12-07T10:31:40;21.60;41.10
51613;DHT22;37694;51.748;14.326;2023-12-07T10:34:06;21.60;41.10
51613;DHT22;37694;51.748;14.326;2023-12-07T10:36:32;21.50;41.10
51613;DHT22;37694;51.748;14.326;2023-12-07T10:38:58;21.50;41.10
51613;DHT22;37694;51.748;14.326;2023-12-07T10:41:25;21.50;41.10
51613;DHT22;37694;51.748;14.326;2023-12-07T10:44:00;21.50;41.10
51613;DHT22;37694;51.748;14.326;2023-12-07T10:46:27;21.50;41.10
51613;DHT22;37694;51.748;14.326;2023-12-07T10:49:04;21.50;41.10
51613;DHT22;37694;51.748;14.326;2023-12-07T10:51:50;21.50;41.10
51613;DHT22;37694;51.748;14.326;2023-12-07T10:54:21;21.50;41.10
51613;DHT22;37694;51.748;14.326;2023-12-07T10:56:48;21.50;41.20
51613;DHT22;37694;51.748;14.326;2023-12-07T10:59:16;21.40;41.10
51613;DHT22;37694;51.748;14.326;2023-12-07T11:01:43;21.40;41.10
51613;DHT22;37694;51.748;14.326;2023-12-07T11:04:13;21.40;41.10
51613;DHT22;37694;51.748;14.326;2023-12-07T11:06:44;21.40;41.10
51613;DHT22;37694;51.748;14.326;2023-12-07T11:09:23;21.40;41.10
51613;DHT22;37694;51.748;14.326;2023-12-07T11:12:12;21.40;41.20
51613;DHT22;37694;51.748;14.326;2023-12-07T11:14:39;21.40;41.10
51613;DHT22;37694;51.748;14.326;2023-12-07T11:17:05;21.30;41.20
51613;DHT22;37694;51.748;14.326;2023-12-07T11:22:02;21.30;41.40
51613;DHT22;37694;51.748;14.326;2023-12-07T11:24:28;21.30;41.10
51613;DHT22;37694;51.748;14.326;2023-12-07T11:26:58;21.30;41.20
51613;DHT22;37694;51.748;14.326;2023-12-07T11:29:24;21.30;41.10
51613;DHT22;37694;51.748;14.326;2023-12-07T11:31:51;21.30;41.20
51613;DHT22;37694;51.748;14.326;2023-12-07T11:37:02;21.30;41.10
51613;DHT22;37694;51.748;14.326;2023-12-07T11:39:29;21.30;41.20
51613;DHT22;37694;51.748;14.326;2023-12-07T11:41:55;21.30;41.20
51613;DHT22;37694;51.748;14.326;2023-12-07T11:44:32;21.20;41.20
51613;DHT22;37694;51.748;14.326;2023-12-07T11:46:58;21.20;41.10
51613;DHT22;37694;51.748;14.326;2023-12-07T11:49:24;21.20;41.20
51613;DHT22;37694;51.748;14.326;2023-12-07T11:51:49;21.20;41.20
51613;DHT22;37694;51.748;14.326;2023-12-07T11:54:15;21.20;41.20
51613;DHT22;37694;51.748;14.326;2023-12-07T11:56:42;21.20;41.20
51613;DHT22;37694;51.748;14.326;2023-12-07T11:59:08;21.20;41.30
51613;DHT22;37694;51.748;14.326;2023-12-07T12:01:35;21.10;41.20
51613;DHT22;37694;51.748;14.326;2023-12-07T12:04:00;21.20;41.20
51613;DHT22;37694;51.748;14.326;2023-12-07T12:06:26;21.10;41.20
51613;DHT22;37694;51.748;14.326;2023-12-07T12:08:52;21.10;41.20
51613;DHT22;37694;51.748;14.326;2023-12-07T12:11:18;21.10;41.20
51613;DHT22;37694;51.748;14.326;2023-12-07T12:13:45;21.10;41.20
51613;DHT22;37694;51.748;14.326;2023-12-07T12:16:12;21.10;41.20
51613;DHT22;37694;51.748;14.326;2023-12-07T12:18:39;21.10;41.20
51613;DHT22;37694;51.748;14.326;2023-12-07T12:21:07;21.10;41.20
51613;DHT22;37694;51.748;14.326;2023-12-07T12:23:34;21.10;41.20
51613;DHT22;37694;51.748;14.326;2023-12-07T12:26:00;21.10;41.20
51613;DHT22;37694;51.748;14.326;2023-12-07T12:28:27;21.10;41.20
51613;DHT22;37694;51.748;14.326;2023-12-07T12:30:52;21.10;41.30
51613;DHT22;37694;51.748;14.326;2023-12-07T12:33:18;21.00;41.20
51613;DHT22;37694;51.748;14.326;2023-12-07T12:35:44;21.00;41.20
51613;DHT22;37694;51.748;14.326;2023-12-07T12:38:11;21.00;41.20
51613;DHT22;37694;51.748;14.326;2023-12-07T12:40:37;21.00;41.20
51613;DHT22;37694;51.748;14.326;2023-12-07T12:43:03;21.00;41.20
51613;DHT22;37694;51.748;14.326;2023-12-07T12:45:28;21.00;41.20
51613;DHT22;37694;51.748;14.326;2023-12-07T12:47:54;21.00;41.20
51613;DHT22;37694;51.748;14.326;2023-12-07T12:50:37;21.00;41.20
51613;DHT22;37694;51.748;14.326;2023-12-07T12:53:12;21.00;41.20
51613;DHT22;37694;51.748;14.326;2023-12-07T12:55:40;21.00;41.20
51613;DHT22;37694;51.748;14.326;2023-12-07T12:58:08;20.90;41.20
51613;DHT22;37694;51.748;14.326;2023-12-07T13:00:35;20.90;41.20
51613;DHT22;37694;51.748;14.326;2023-12-07T13:03:04;20.90;41.20
51613;DHT22;37694;51.748;14.326;2023-12-07T13:05:30;20.90;41.20
51613;DHT22;37694;51.748;14.326;2023-12-07T13:07:57;20.90;41.20
51613;DHT22;37694;51.748;14.326;2023-12-07T13:10:25;20.90;41.30
51613;DHT22;37694;51.748;14.326;2023-12-07T13:12:51;20.90;41.30
51613;DHT22;37694;51.748;14.326;2023-12-07T13:15:17;20.90;41.20
51613;DHT22;37694;51.748;14.326;2023-12-07T13:17:43;20.90;41.30
51613;DHT22;37694;51.748;14.326;2023-12-07T13:20:10;20.80;41.20
51613;DHT22;37694;51.748;14.326;2023-12-07T13:22:42;20.80;41.20
51613;DHT22;37694;51.748;14.326;2023-12-07T13:25:12;20.90;41.20
51613;DHT22;37694;51.748;14.326;2023-12-07T13:27:40;20.80;41.20
51613;DHT22;37694;51.748;14.326;2023-12-07T13:30:06;20.80;41.20
51613;DHT22;37694;51.748;14.326;2023-12-07T13:32:36;20.80;41.30
51613;DHT22;37694;51.748;14.326;2023-12-07T13:35:08;20.80;41.30
51613;DHT22;37694;51.748;14.326;2023-12-07T13:37:33;20.80;41.30
51613;DHT22;37694;51.748;14.326;2023-12-07T13:39:59;20.80;41.40
51613;DHT22;37694;51.748;14.326;2023-12-07T13:42:26;20.80;41.40
51613;DHT22;37694;51.748;14.326;2023-12-07T13:44:56;20.80;41.30
51613;DHT22;37694;51.748;14.326;2023-12-07T13:47:24;20.80;41.30
51613;DHT22;37694;51.748;14.326;2023-12-07T13:49:58;20.80;41.30
51613;DHT22;37694;51.748;14.326;2023-12-07T13:52:24;20.70;41.30
51613;DHT22;37694;51.748;14.326;2023-12-07T13:54:50;20.70;41.30
51613;DHT22;37694;51.748;14.326;2023-12-07T13:57:23;20.70;41.40
51613;DHT22;37694;51.748;14.326;2023-12-07T13:59:52;20.70;41.30
51613;DHT22;37694;51.748;14.326;2023-12-07T14:02:18;20.70;41.30
51613;DHT22;37694;51.748;14.326;2023-12-07T14:04:48;20.70;41.30
51613;DHT22;37694;51.748;14.326;2023-12-07T14:07:18;20.70;41.40
51613;DHT22;37694;51.748;14.326;2023-12-07T14:09:46;20.70;41.50
51613;DHT22;37694;51.748;14.326;2023-12-07T14:12:13;20.70;41.90
51613;DHT22;37694;51.748;14.326;2023-12-07T14:14:44;20.70;41.80
51613;DHT22;37694;51.748;14.326;2023-12-07T14:17:13;20.70;41.70
51613;DHT22;37694;51.748;14.326;2023-12-07T14:19:39;20.70;41.40
51613;DHT22;37694;51.748;14.326;2023-12-07T14:22:05;20.70;41.40
51613;DHT22;37694;51.748;14.326;2023-12-07T14:24:31;20.70;41.30
51613;DHT22;37694;51.748;14.326;2023-12-07T14:26:57;20.80;41.30
51613;DHT22;37694;51.748;14.326;2023-12-07T14:29:23;20.80;41.20
51613;DHT22;37694;51.748;14.326;2023-12-07T14:31:50;20.80;41.30
51613;DHT22;37694;51.748;14.326;2023-12-07T14:34:17;20.70;41.30
51613;DHT22;37694;51.748;14.326;2023-12-07T14:36:43;20.80;41.20
51613;DHT22;37694;51.748;14.326;2023-12-07T14:39:12;20.80;41.20
51613;DHT22;37694;51.748;14.326;2023-12-07T14:41:43;20.70;41.20
51613;DHT22;37694;51.748;14.326;2023-12-07T14:44:10;20.70;41.20
51613;DHT22;37694;51.748;14.326;2023-12-07T14:46:35;20.70;41.10
51613;DHT22;37694;51.748;14.326;2023-12-07T14:49:01;20.70;41.30
51613;DHT22;37694;51.748;14.326;2023-12-07T14:51:28;20.70;41.30
51613;DHT22;37694;51.748;14.326;2023-12-07T14:53:54;20.70;41.20
51613;DHT22;37694;51.748;14.326;2023-12-07T14:56:19;20.70;41.30
51613;DHT22;37694;51.748;14.326;2023-12-07T14:58:47;20.70;41.30
51613;DHT22;37694;51.748;14.326;2023-12-07T15:01:12;20.70;41.20
51613;DHT22;37694;51.748;14.326;2023-12-07T15:03:38;20.60;41.30
51613;DHT22;37694;51.748;14.326;2023-12-07T15:06:04;20.70;41.20
51613;DHT22;37694;51.748;14.326;2023-12-07T15:08:30;20.70;41.20
51613;DHT22;37694;51.748;14.326;2023-12-07T15:10:55;20.60;41.10
51613;DHT22;37694;51.748;14.326;2023-12-07T15:13:21;20.70;41.20
51613;DHT22;37694;51.748;14.326;2023-12-07T15:15:47;20.60;41.20
51613;DHT22;37694;51.748;14.326;2023-12-07T15:18:13;20.60;41.20
51613;DHT22;37694;51.748;14.326;2023-12-07T15:20:38;20.60;41.20
51613;DHT22;37694;51.748;14.326;2023-12-07T15:23:04;20.60;41.20